Vadim Radchenko

Olheiro-Chefe - Amkar
3 Dez 2028
Domingo
Processo

Personalidade

Adaptabilidade (19) Ambição (19) Controvérsia (9) Lealdade (16) Pressão (13) Profissionalismo (12) Espírito Esportivo (5) Temperamento (4)

Perfil

Estilo de Treinamento Democrático
Licença Continental A
Determinação 4
Gestão de Pessoas 2
Motivação 2
Disciplina 6
Satisfação no Trabalho
100%
Fadiga
0%
Função Olheiro-Chefe
Salário 24.1K p/s
Contrato 14.03.2029

Desempenho

Comportamento Bom
Eficácia do Treinamento
25%
Desenvolvimento do Jogador
25%
Prevenção de Lesões
30%
Implementação Tática
35%

Eventos Recentes

Participou de uma reunião de recrutamento agora
Avaliou um jogador agora
Avaliou um jogador agora
Participou de uma reunião de recrutamento 7d atrás
Avaliou um jogador 7d atrás
Observou uma partida 7d atrás
Avaliou um jogador 7d atrás
Avaliou um jogador 7d atrás

Monitorando agora

83
Jogador Clube Status Habilidade Confiança Observado Última observação Último voto
Máximo Núñez Los Andes Ativo 119 / 93 40% 2 02.12.2028 -
Joaquín Bigo Tristán Suárez Ativo 113 / 97 40% 2 02.12.2028 -
Stanislav Kleschuk Gomel Ativo 97 / 85 40% 5 01.12.2028 -
Vladislav Drozd Isloch Ativo 75 / 73 40% 4 01.12.2028 -
Vladislav Kucheiko Sevastopol Ativo 85 / 91 40% 2 30.11.2028 -
Nahuel Manganelli San Martín Ativo 120 / 102 40% 2 30.11.2028 -
Esteban Glellel Quilmes Ativo 123 / 126 40% 2 30.11.2028 -
Reynaldo Fontalvo Real Cartagena Ativo 120 / 113 40% 5 26.11.2028 -
Maxim Vafiev Torpedo Vladimir Ativo 80 / 97 40% 2 26.11.2028 -
Kevin Chacón Alianza Petrolera Ativo 121 / 115 40% 1 25.11.2028 -
Mikhail Gaidash Spartak Kostroma Ativo 104 / 112 40% 1 24.11.2028 -
Vadim Averkiev Orel Ativo 103 / 103 40% 1 24.11.2028 -
Lautaro Herrera Estudiantes Ativo 108 / 118 40% 3 20.11.2028 -
Filippo Manfrin Arzignano Ativo 121 / 126 40% 1 20.11.2028 -
Timur Kraikov Sokol Ativo 93 / 109 40% 1 20.11.2028 -
Ángel Maciel Tacuarembo Ativo 114 / 116 40% 2 18.11.2028 -
Facundo Vila Estudiantes Ativo 118 / 113 40% 2 18.11.2028 -
Ignat Terekhovskiy Metallurg Ativo 73 / 92 40% 1 18.11.2028 -
Andrey Agapov Ostrovets Ativo 67 / 63 40% 3 17.11.2028 -
Nikita Yanovich Tyumen Ativo 105 / 109 40% 3 17.11.2028 -
Dante Jadli Temperley Ativo 80 / 99 40% 1 17.11.2028 -
Alexandr Ryabinkin Textilschik Ativo 93 / 102 40% 3 16.11.2028 -
Daniil Barinov Parnu Ativo 81 / 92 40% 2 16.11.2028 -
Igor Malaschitskiy Dinamo Brest Ativo 84 / 82 40% 2 16.11.2028 -
Denis Shpakovskiy Baranovichi Ativo 87 / 89 40% 2 13.11.2028 -
Artem Albastov Kolomna Ativo 76 / 85 40% 1 13.11.2028 -
Yegor Skichko KDV Tomsk Ativo 77 / 79 40% 3 12.11.2028 -
Santiago Garro Almirante Brown Ativo 100 / 118 40% 1 12.11.2028 -
Aidas Vaitkunas Trakai Ativo 80 / 87 40% 1 12.11.2028 -
Nikita Dovnar Niva Ativo 78 / 83 40% 3 10.11.2028 -
Juan Pablo Noce All Boys Ativo 118 / 112 40% 2 08.11.2028 -
Alexandr Grigorjev Uralets-TS Ativo 80 / 72 40% 1 08.11.2028 -
Matías Montero Madryn Ativo 90 / 104 40% 1 07.11.2028 -
Pavel Prishivalko Belshina Ativo 82 / 90 40% 1 07.11.2028 -
Juan Pablo Rial San Telmo Ativo 97 / 104 40% 4 05.11.2028 -
Mauro Casoli Talleres Ativo 112 / 125 40% 4 05.11.2028 -
Iván Chaves Patronato Ativo 102 / 112 40% 4 05.11.2028 -
Nahuel Pezzini Arsenal Ativo 124 / 121 40% 4 04.11.2028 -
Ivan Stosh Osipovichi Ativo 59 / 68 40% 2 03.11.2028 -
Nikita Pavlov Chaika Ativo 93 / 85 40% 1 03.11.2028 -
Danila Tretyak Molodechno Ativo 95 / 91 40% 2 02.11.2028 -
Nahuel González Alvarado Ativo 88 / 85 40% 2 01.11.2028 -
Tobías Pantoja Central Norte Ativo 98 / 123 40% 1 30.10.2028 -
David Agudelo Depor Ativo 96 / 98 40% 1 30.10.2028 -
Maxim Makarov Orsha Ativo 87 / 73 40% 2 26.10.2028 -
Anthony Cletus Bendel Insurance Ativo 98 / 87 40% 2 26.10.2028 -
Emiliano González Almagro Ativo 133 / 115 40% 4 26.10.2028 -
Andrey Bondar' Spartak Tambov Ativo 84 / 88 40% 1 25.10.2028 -
David Byazrov Alania Ativo 86 / 100 40% 1 23.10.2028 -
Jan Eicher Slonim Ativo 85 / 91 40% 1 19.10.2028 -
Kirill Belevskikh Dinamo Kirov Ativo 60 / 82 40% 1 19.10.2028 -
Francisco Salerno Defensores Unidos Ativo 124 / 127 40% 2 14.10.2028 -
Arseny Osadchiy Krylya Sovetov Ativo 84 / 86 40% 1 13.10.2028 -
Aleksandr Dovgal' Astra Ativo 94 / 82 40% 1 13.10.2028 -
Timur Akmurzin Dinamo Bryansk Ativo 94 / 107 40% 1 09.10.2028 -
Andrey Khodanovich Orenburg Rejeitado 91 / 84 67% 1 07.10.2028 Rejeitar
Kevin Morgan Plaza Colonia Ativo 112 / 126 40% 2 06.10.2028 -
Gerardo Díaz San Martín SJ Ativo 104 / 103 40% 1 06.10.2028 -
Tomás Palleres Güemes Ativo 92 / 107 40% 1 29.08.2028 -
Hasanboy Tojiboyev Galactik Ativo 75 / 91 40% 1 29.08.2028 -
Daniil Kozlov Kuban Holding Ativo 67 / 72 52% 1 / 1m 16.08.2028 -
Roman Suslov Kuban Holding Ativo 64 / 69 30% 1 / 1m 16.08.2028 -
Dmitry Melnik Giugliano Ativo 77 / 75 40% 1 14.08.2028 -
Sheikh Sibi Virtus Verona Ativo 102 / 103 40% 1 08.08.2028 -
Banele Mnguni Irtysh Rejeitado 74 / 85 65% 1 07.08.2028 -
Timofey Yurasov Torpedo-BelAZ Ativo 93 / 95 40% 1 03.08.2028 -
Alejo Medina Agropecuario Argentino Ativo 104 / 103 40% 1 03.08.2028 -
Artem Denisenko Bumprom Gomel Ativo 84 / 88 40% 1 24.07.2028 -
Artur Malievskiy Lida Ativo 91 / 91 40% 1 19.07.2028 -
Roman Anikeev Dinamo Vologda Ativo 73 / 78 40% 3 11.07.2028 -
Vladimir Tsapurin SKA Khabarovsk Ativo 89 / 87 40% 1 11.07.2028 -
Vitaly Semenov KAMAZ Rejeitado 79 / 83 69% 1 14.06.2028 -
Jacob Knightbridge Legion Rejeitado 81 / 72 40% 1 12.06.2028 -
Leon Borković Irkutsk Ativo 83 / 98 40% 1 10.06.2028 -
David Sangaré Ryazan Ativo 96 / 89 40% 1 09.06.2028 -
Emiliano Bermúdez Oriental Ativo 91 / 112 40% 1 08.06.2028 -
Alexey Kuznetsov Leningradets Ativo 108 / 109 40% 1 08.06.2028 -
Zakhar Badyuk Cherepovets Rejeitado 59 / 71 40% 1 13.06.2027 -
Vladimir Pavlov Saturn Rejeitado 72 / 81 40% 1 13.06.2027 -
David Berezov Cherepovets Ativo 59 / 66 55% 1 10.08.2026 -
Vyacheslav Krotov Volgar Ativo 79 / 93 40% 1 03.08.2026 -
Matvey Ivakhnov Mashuk Ativo 65 / 82 40% 1 03.08.2026 -
Camilo Machado Madryn Ativo 105 / 116 40% 1 02.08.2026 -